Aviation Digital Data Service (ADDS)

Output produced by METARs form (0129 UTC 29 November 2020)
found at http://www.aviationweather.gov/metar/data/
 
Forecast for: WAOO (SYAMSUDIN NOOR , ID)
Text: TAF WAOO 282300Z 2900/2924 31006KT 9000 SCT018
Forecast period: 0000 UTC 29 November 2020 to 0000 UTC 30 November 2020
Forecast type: FROM: standard forecast or significant change
Winds: from the NW (310 degrees) at 7 MPH (6 knots; 3.1 m/s)
Visibility: 6 miles (9 km)
Ceiling: at least 12,000 feet AGL
Clouds: scattered clouds at 1800 feet AGL
Weather: no significant weather forecast for this period
Text: TEMPO 2903/2907 3000 TSRA FEW015CB
Forecast period: 0300 to 0700 UTC 29 November 2020
Forecast type: TEMPORARY: The following changes expected for less than half the time period
Visibility: 1.86 miles (2.99 km)
Ceiling: at least 12,000 feet AGL
Clouds: few clouds at 1500 feet AGL
Weather: TSRA  (rain associated with thunderstorm(s))